Thunderstorms From: 20-05-2018 15:00 Until: 21-05-2018 15:00 warning for: Thunderstorms Level: Yellow info button

Although rather usual in this region, locally or potentially dangerous phenomena are expected. (such as local winds, summer thunderstorms, rising streams or high waves) Be aware and pay attention to the latest weather updates, especially if you carry out activities exposed to weather or close to a stream or shoreline. 


Meteo18 Weather Cam more information Meteo18 Weather Cam


warning for Thunderstorms more information blitzortung!


Rain radar more information rain snow radar


Visit our other weather sites:

Template documentation
and downloads

And another site



Weather Underground History page Text

Daily Summary for September 14, 2016 Units:  Metric    English   Both
« Previous Day
Next Day »
Daily Weekly Monthly Yearly Custom
  High: Low: Average:
Temperature: -17.8 °C -9.9 °C -7 °C
Dew Point: -17.8 °C -11.1 °C -9.9 °C
Humidity: Humidity % 47 % 73 %
Wind Speed: 0 km/h 0 km/h 5.1 km/h
Wind Gust: 0 km/h - -
Wind:- - SSE
Pressure: 0 hPa 34107.2 hPa -
Precipitation: 309.88 mm    
Historical Graphs
 
 
Tabular Data for September 14, 2016
Time Temperature Dew Point Pressure Wind Wind Speed Wind Gust Humidity Rainfall Rate (Hourly)
-17.8 °C -17.8 °C 0 hPa Calm     Humidity % 0 mm
00:02 -4.1 °C -10.8 °C 34120.7 hPa SE 2.6 km/h 20.8 km/h 47 % 0 mm
00:12 -4.3 °C -10.8 °C 34120.7 hPa SW 5.1 km/h 18.2 km/h 48 % 0 mm
00:17 -4.3 °C -10.8 °C 34107.2 hPa SSE 2.6 km/h 18.2 km/h 48 % 0 mm
00:22 -4.4 °C -10.7 °C 34107.2 hPa East 5.1 km/h 15.6 km/h 49 % 0 mm
00:27 -4.5 °C -10.8 °C 34120.7 hPa SSE 5.1 km/h 12.9 km/h 49 % 0 mm
00:32 -4.6 °C -10.7 °C 34120.7 hPa SE 2.6 km/h 12.9 km/h 50 % 0 mm
00:37 -4.7 °C -10.7 °C 34144.4 hPa WSW 18.2 km/h 18.2 km/h 51 % 0 mm
00:52 -4.9 °C -9.9 °C 34154.6 hPa West 10.3 km/h 38.8 km/h 57 % 0 mm
00:57 -5.1 °C -9.8 °C 34154.6 hPa South 7.7 km/h 31.1 km/h 59 % 0 mm
01:02 -5.2 °C -9.6 °C 34154.6 hPa West 18.2 km/h 31.1 km/h 61 % 0 mm
01:07 -5.4 °C -9.6 °C 34154.6 hPa SW 23.3 km/h 33.6 km/h 62 % 0 mm
01:17 -5.6 °C -9.7 °C 34154.6 hPa West 18.2 km/h 31.1 km/h 63 % 0 mm
01:22 -5.7 °C -9.7 °C 34154.6 hPa SW 15.6 km/h 31.1 km/h 64 % 0 mm
01:27 -5.8 °C -9.7 °C 34154.6 hPa West 5.1 km/h 28.5 km/h 64 % 0 mm
01:32 -5.9 °C -9.7 °C 34164.7 hPa SW 10.3 km/h 23.3 km/h 65 % 0 mm
01:42 -6.2 °C -9.8 °C 34164.7 hPa WSW 2.6 km/h 20.8 km/h 66 % 0 mm
01:52 -6.3 °C -9.7 °C 34164.7 hPa SSW 7.7 km/h 23.3 km/h 68 % 0 mm
01:57 -6.4 °C -9.8 °C 34164.7 hPa WNW 15.6 km/h 23.3 km/h 68 % 0 mm
02:02 -6.5 °C -9.8 °C 34178.3 hPa WSW 12.9 km/h 23.3 km/h 69 % 0 mm
02:07 -6.6 °C -9.8 °C 34178.3 hPa South 10.3 km/h 23.3 km/h 69 % 0 mm
02:12 -6.7 °C -9.8 °C 34178.3 hPa SW 10.3 km/h 23.3 km/h 70 % 0 mm
02:22 -6.8 °C -9.9 °C 34178.3 hPa SW 7.7 km/h 18.2 km/h 70 % 0 mm
02:32 -7 °C -9.9 °C 34178.3 hPa SSW 5.1 km/h 18.2 km/h 72 % 0 mm
02:37 -7.1 °C -9.8 °C 34178.3 hPa SSW 5.1 km/h 18.2 km/h 73 % 0 mm
02:52 -7.3 °C -9.9 °C 34188.4 hPa SW 7.7 km/h 15.6 km/h 74 % 0 mm
03:02 -7.5 °C -10.1 °C 34188.4 hPa SSW 10.3 km/h 15.6 km/h 74 % 0 mm
03:12 -7.7 °C -9.9 °C 34198.6 hPa SSW 5.1 km/h 15.6 km/h 77 % 0 mm
03:17 -7.7 °C -9.9 °C 34198.6 hPa SSW 5.1 km/h 18.2 km/h 78 % 0 mm
03:22 -7.8 °C -10 °C 34198.6 hPa SSW 5.1 km/h 18.2 km/h 78 % 0 mm
03:32 -7.9 °C -10 °C 34198.6 hPa SSW 2.6 km/h 12.9 km/h 79 % 0 mm
03:42 -8 °C -9.9 °C 34198.6 hPa SW 5.1 km/h 12.9 km/h 80 % 0 mm
03:47 -8.1 °C -10.1 °C 34198.6 hPa SSW 7.7 km/h 12.9 km/h 80 % 0 mm
03:52 -8.2 °C -10.1 °C 34198.6 hPa SSW 7.7 km/h 15.6 km/h 80 % 0 mm
03:57 -8.2 °C -10.1 °C 34212.1 hPa SSW 7.7 km/h 15.6 km/h 81 % 0 mm
04:07 -8.3 °C -10.1 °C 34212.1 hPa SSW 5.1 km/h 12.9 km/h 81 % 0 mm
04:12 -8.4 °C -10.1 °C 34212.1 hPa SSW 7.7 km/h 12.9 km/h 82 % 0 mm
04:17 -8.4 °C -10.2 °C 34198.6 hPa SW 5.1 km/h 12.9 km/h 82 % 0 mm
04:22 -8.5 °C -10.2 °C 34198.6 hPa Calm   10.3 km/h 82 % 0 mm
04:32 -8.6 °C -10.2 °C 34198.6 hPa Calm   7.7 km/h 83 % 0 mm
04:37 -8.6 °C -10.2 °C 34198.6 hPa Calm   2.6 km/h 83 % 0 mm
04:42 -8.7 °C -10.3 °C 34198.6 hPa Calm   2.6 km/h 83 % 0 mm
04:52 -8.8 °C -10.4 °C 34212.1 hPa Calm   2.6 km/h 83 % 0 mm
04:57 -8.9 °C -10.4 °C 34198.6 hPa Calm   2.6 km/h 84 % 0 mm
05:02 -9 °C -10.4 °C 34198.6 hPa SW 2.6 km/h 2.6 km/h 85 % 0 mm
05:12 -9.1 °C -10.3 °C 34198.6 hPa Calm   5.1 km/h 86 % 0 mm
05:17 -9.1 °C -10.4 °C 34198.6 hPa Calm   5.1 km/h 85 % 0 mm
05:22 -9.1 °C -10.5 °C 34198.6 hPa Calm   5.1 km/h 85 % 0 mm
05:27 -9.1 °C -10.4 °C 34198.6 hPa Calm   2.6 km/h 86 % 0 mm
05:32 -9.2 °C -10.6 °C 34198.6 hPa Calm   2.6 km/h 85 % 0 mm
05:37 -9.2 °C -10.6 °C 34198.6 hPa Calm   2.6 km/h 85 % 0 mm
05:42 -9.2 °C -10.5 °C 34212.1 hPa Calm   2.6 km/h 86 % 0 mm
05:47 -9.2 °C -10.5 °C 34212.1 hPa Calm   2.6 km/h 86 % 0 mm
05:52 -9.2 °C -10.5 °C 34212.1 hPa Calm   2.6 km/h 86 % 0 mm
06:02 -9.2 °C -10.5 °C 34198.6 hPa Calm   2.6 km/h 86 % 0 mm
06:07 -9.2 °C -10.5 °C 34198.6 hPa Calm   2.6 km/h 86 % 0 mm
06:12 -9.3 °C -10.7 °C 34198.6 hPa ENE 2.6 km/h 2.6 km/h 85 % 0 mm
06:17 -9.4 °C -10.7 °C 34198.6 hPa ENE 2.6 km/h 2.6 km/h 86 % 0 mm
06:22 -9.4 °C -10.6 °C 34198.6 hPa Calm   5.1 km/h 87 % 0 mm
06:27 -9.5 °C -10.7 °C 34198.6 hPa Calm   5.1 km/h 87 % 0 mm
06:32 -9.6 °C -10.7 °C 34198.6 hPa Calm   2.6 km/h 87 % 0 mm
06:37 -9.6 °C -10.9 °C 34212.1 hPa Calm   2.6 km/h 86 % 0 mm
06:42 -9.7 °C -10.8 °C 34212.1 hPa Calm     87 % 0 mm
06:47 -9.6 °C -10.7 °C 34212.1 hPa Calm     88 % 0 mm
06:52 -9.6 °C -10.7 °C 34212.1 hPa Calm     88 % 0 mm
06:57 -9.7 °C -11 °C 34212.1 hPa Calm     86 % 0 mm
07:02 -9.8 °C -10.9 °C 34212.1 hPa Calm     87 % 0 mm
07:07 -9.8 °C -10.9 °C 34212.1 hPa Calm     88 % 0 mm
07:12 -9.8 °C -10.9 °C 34212.1 hPa Calm     88 % 0 mm
07:17 -9.8 °C -10.9 °C 34222.3 hPa Calm     88 % 0 mm
07:27 -9.8 °C -10.9 °C 34222.3 hPa Calm     88 % 0 mm
07:32 -9.8 °C -10.9 °C 34222.3 hPa Calm     88 % 0 mm
07:37 -9.9 °C -11.1 °C 34222.3 hPa Calm     87 % 0 mm
07:42 -9.8 °C -10.8 °C 34212.1 hPa Calm     89 % 0 mm
07:47 -9.8 °C -10.9 °C 34212.1 hPa Calm     88 % 0 mm
07:52 -9.8 °C -10.9 °C 34212.1 hPa Calm     88 % 0 mm
07:57 -9.8 °C -10.9 °C 34222.3 hPa Calm     88 % 0 mm
08:02 -9.8 °C -10.9 °C 34222.3 hPa Calm   5.1 km/h 88 % 0 mm
08:07 -9.7 °C -10.8 °C 34235.8 hPa Calm   5.1 km/h 88 % 0 mm
08:12 -9.7 °C -10.8 °C 34235.8 hPa WNW 2.6 km/h 5.1 km/h 88 % 0 mm
08:17 -9.6 °C -10.7 °C 34235.8 hPa WNW 2.6 km/h 2.6 km/h 88 % 0 mm
08:27 -9.5 °C -10.6 °C 34235.8 hPa West 2.6 km/h 7.7 km/h 88 % 0 mm
08:37 -9.1 °C -10.3 °C 34235.8 hPa Calm   10.3 km/h 86 % 0 mm
08:42 -8.8 °C -10.3 °C 34235.8 hPa Calm   10.3 km/h 84 % 0 mm
08:47 -8.7 °C -10.3 °C 34235.8 hPa Calm   7.7 km/h 83 % 0 mm
08:57 -8.3 °C -10.1 °C 34235.8 hPa Calm   2.6 km/h 81 % 0 mm
09:02 -8.2 °C -10.1 °C 34235.8 hPa SSW 5.1 km/h 5.1 km/h 80 % 0 mm
09:07 -8.1 °C -10.1 °C 34246 hPa West 10.3 km/h 10.3 km/h 79 % 0 mm
09:12 -8 °C -10.2 °C 34246 hPa SW 5.1 km/h 12.9 km/h 78 % 0 mm
09:17 -7.9 °C -10.1 °C 34246 hPa WSW 5.1 km/h 15.6 km/h 78 % 0 mm
09:27 -7.4 °C -10.1 °C 34235.8 hPa West 7.7 km/h 15.6 km/h 74 % 0 mm
09:32 -7.3 °C -10 °C 34235.8 hPa West 10.3 km/h 15.6 km/h 73 % 0 mm
09:37 -7.2 °C -10.1 °C 34246 hPa WSW 2.6 km/h 15.6 km/h 72 % 0 mm
09:42 -7.1 °C -10.1 °C 34246 hPa WNW 5.1 km/h 15.6 km/h 71 % 0 mm
09:47 -7 °C -10.2 °C 34246 hPa Calm   15.6 km/h 69 % 0 mm
09:52 -6.8 °C -10.1 °C 34246 hPa Calm   12.9 km/h 69 % 0 mm
09:57 -6.6 °C -10.1 °C 34246 hPa Calm   12.9 km/h 67 % 0 mm
10:02 -6.4 °C -9.9 °C 34256.2 hPa Calm   10.3 km/h 67 % 0 mm
10:12 -6.2 °C -10.3 °C 34256.2 hPa WSW 7.7 km/h 7.7 km/h 63 % 0 mm
10:17 -6.1 °C -10.4 °C 34246 hPa WSW 5.1 km/h 18.2 km/h 61 % 0 mm
10:27 -6 °C -10.5 °C 34246 hPa WSW 7.7 km/h 20.8 km/h 60 % 0 mm
10:32 -6 °C -10.6 °C 34256.2 hPa WSW 7.7 km/h 20.8 km/h 59 % 0 mm
10:42 -6 °C -10.6 °C 34256.2 hPa SW 5.1 km/h 15.6 km/h 59 % 0 mm
10:47 -6 °C -10.6 °C 34256.2 hPa WSW 5.1 km/h 15.6 km/h 59 % 0 mm
10:57 -5.9 °C -10.3 °C 34256.2 hPa WSW 5.1 km/h 15.6 km/h 61 % 0 mm
11:02 -6.1 °C -10.4 °C 34269.7 hPa SW 7.7 km/h 15.6 km/h 61 % 0 mm
11:07 -5.9 °C -10 °C 34269.7 hPa SW 5.1 km/h 18.2 km/h 63 % 0 mm
11:12 -6.1 °C -10.3 °C 34269.7 hPa SW 5.1 km/h 18.2 km/h 62 % 0 mm
11:22 -6.1 °C -10.3 °C 34269.7 hPa West 10.3 km/h 18.2 km/h 62 % 0 mm
11:27 -6.2 °C -10.4 °C 34269.7 hPa Calm   15.6 km/h 62 % 0 mm
11:32 -6.2 °C -10.2 °C 34269.7 hPa WNW 5.1 km/h 18.2 km/h 63 % 0 mm
11:37 -6.2 °C -10.2 °C 34279.9 hPa WSW 5.1 km/h 18.2 km/h 63 % 0 mm
11:42 -6.2 °C -10.4 °C 34269.7 hPa WSW 5.1 km/h 18.2 km/h 62 % 0 mm
11:47 -6.2 °C -10.4 °C 34269.7 hPa West 7.7 km/h 15.6 km/h 62 % 0 mm
11:52 -6.2 °C -10.2 °C 34269.7 hPa SSW 7.7 km/h 12.9 km/h 63 % 0 mm
11:57 -6.2 °C -10.4 °C 34269.7 hPa Calm   12.9 km/h 62 % 0 mm
12:02 -6 °C -10.2 °C 34269.7 hPa West 10.3 km/h 15.6 km/h 62 % 0 mm
12:12 -6 °C -10.3 °C 34269.7 hPa Calm   15.6 km/h 61 % 0 mm
12:17 -6.1 °C -10.4 °C 34269.7 hPa West 7.7 km/h 15.6 km/h 61 % 0 mm
12:22 -5.9 °C -10.3 °C 34269.7 hPa West 7.7 km/h 15.6 km/h 61 % 0 mm
12:32 -5.9 °C -10.3 °C 34269.7 hPa West 5.1 km/h 15.6 km/h 61 % 0 mm
12:42 -5.9 °C -10.4 °C 34269.7 hPa West 5.1 km/h 15.6 km/h 60 % 0 mm
12:47 -5.8 °C -10.2 °C 34256.2 hPa Calm   15.6 km/h 61 % 0 mm
12:52 -5.8 °C -10.4 °C 34256.2 hPa West 5.1 km/h 15.6 km/h 59 % 0 mm
12:57 -5.8 °C -10.5 °C 34256.2 hPa SSW 2.6 km/h 18.2 km/h 59 % 0 mm
13:02 -5.7 °C -10.4 °C 34256.2 hPa Calm   18.2 km/h 59 % 0 mm
13:07 -5.7 °C -10.3 °C 34256.2 hPa Calm   15.6 km/h 59 % 0 mm
13:12 -5.6 °C -10.3 °C 34256.2 hPa NNW 5.1 km/h 10.3 km/h 58 % 0 mm
13:17 -5.4 °C -10.3 °C 34246 hPa NNE 7.7 km/h 10.3 km/h 58 % 0 mm
13:22 -5.5 °C -10.3 °C 34256.2 hPa North 5.1 km/h 12.9 km/h 58 % 0 mm
13:27 -5.6 °C -10.3 °C 34256.2 hPa ENE 2.6 km/h 12.9 km/h 58 % 0 mm
13:32 -5.6 °C -10.4 °C 34246 hPa North 5.1 km/h 12.9 km/h 58 % 0 mm
13:38 -5.4 °C -10.3 °C 34246 hPa Calm   12.9 km/h 58 % 0 mm
13:47 -5.4 °C -10.4 °C 34246 hPa West 2.6 km/h 5.1 km/h 57 % 0 mm
13:52 -5.4 °C -10.2 °C 34246 hPa Calm   2.6 km/h 58 % 0 mm
14:02 -5.2 °C -10.3 °C 34246 hPa Calm   5.1 km/h 56 % 0 mm
14:12 -5.2 °C -10.2 °C 34246 hPa Calm   10.3 km/h 57 % 0 mm
14:17 -5.2 °C -10.2 °C 34246 hPa ENE 2.6 km/h 10.3 km/h 57 % 0 mm
14:22 -5.2 °C -10.2 °C 34246 hPa ENE 5.1 km/h 7.7 km/h 57 % 0 mm
14:32 -5.2 °C -10.2 °C 34235.8 hPa Calm   7.7 km/h 57 % 0 mm
14:37 -5.1 °C -10.1 °C 34235.8 hPa Calm   7.7 km/h 57 % 0 mm
14:42 -4.9 °C -9.9 °C 34235.8 hPa ENE 2.6 km/h 7.7 km/h 57 % 0 mm
14:47 -4.9 °C -10.1 °C 34235.8 hPa Calm   7.7 km/h 56 % 0 mm
14:52 -5 °C -10 °C 34235.8 hPa Calm   10.3 km/h 57 % 0 mm
14:57 -4.9 °C -10.1 °C 34235.8 hPa ENE 10.3 km/h 10.3 km/h 56 % 0 mm
15:02 -4.9 °C -10.1 °C 34222.3 hPa ENE 5.1 km/h 18.2 km/h 56 % 0 mm
15:07 -4.9 °C -10.1 °C 34222.3 hPa East 7.7 km/h 18.2 km/h 56 % 0 mm
15:12 -4.9 °C -10.1 °C 34222.3 hPa East 2.6 km/h 18.2 km/h 56 % 0 mm
15:17 -4.9 °C -10.1 °C 34212.1 hPa ENE 7.7 km/h 10.3 km/h 56 % 0 mm
15:22 -4.9 °C -9.9 °C 34222.3 hPa ENE 2.6 km/h 12.9 km/h 57 % 0 mm
15:27 -4.8 °C -10 °C 34222.3 hPa East 5.1 km/h 12.9 km/h 56 % 0 mm
15:32 -4.8 °C -10 °C 34222.3 hPa ENE 15.6 km/h 15.6 km/h 56 % 0 mm
15:37 -4.9 °C -9.9 °C 34212.1 hPa ESE 2.6 km/h 15.6 km/h 57 % 0 mm
15:42 -4.8 °C -9.8 °C 34212.1 hPa ENE 5.1 km/h 15.6 km/h 57 % 0 mm
15:47 -4.8 °C -10 °C 34222.3 hPa ENE 7.7 km/h 15.6 km/h 56 % 0 mm
15:52 -4.8 °C -9.8 °C 34222.3 hPa East 2.6 km/h 12.9 km/h 57 % 0 mm
15:57 -4.8 °C -9.8 °C 34222.3 hPa ENE 5.1 km/h 12.9 km/h 57 % 0 mm
16:02 -4.8 °C -9.9 °C 34222.3 hPa Calm   12.9 km/h 56 % 0 mm
16:07 -4.8 °C -9.9 °C 34222.3 hPa ENE 7.7 km/h 12.9 km/h 56 % 0 mm
16:12 -4.8 °C -9.9 °C 34222.3 hPa Calm   10.3 km/h 56 % 0 mm
16:17 -4.8 °C -9.9 °C 34222.3 hPa ENE 5.1 km/h 10.3 km/h 56 % 0 mm
16:22 -4.7 °C -9.9 °C 34212.1 hPa Calm   10.3 km/h 56 % 0 mm
16:27 -4.7 °C -10 °C 34212.1 hPa ENE 2.6 km/h 10.3 km/h 55 % 0 mm
16:32 -4.6 °C -9.9 °C 34198.6 hPa Calm   7.7 km/h 55 % 0 mm
16:37 -4.6 °C -9.9 °C 34198.6 hPa NE 5.1 km/h 10.3 km/h 55 % 0 mm
16:42 -4.6 °C -9.9 °C 34198.6 hPa Calm   10.3 km/h 55 % 0 mm
16:52 -4.6 °C -10.1 °C 34198.6 hPa ENE 2.6 km/h 5.1 km/h 54 % 0 mm
16:57 -4.6 °C -10.1 °C 34198.6 hPa Calm   5.1 km/h 54 % 0 mm
17:02 -4.6 °C -10.1 °C 34188.4 hPa North 7.7 km/h 7.7 km/h 54 % 0 mm
17:12 -4.6 °C -10.1 °C 34188.4 hPa ENE 2.6 km/h 7.7 km/h 54 % 0 mm
17:17 -4.6 °C -10.1 °C 34188.4 hPa Calm   7.7 km/h 54 % 0 mm
17:22 -4.6 °C -10.1 °C 34188.4 hPa NNE 7.7 km/h 7.7 km/h 54 % 0 mm
17:27 -4.6 °C -10.1 °C 34188.4 hPa Calm   7.7 km/h 54 % 0 mm
17:32 -4.6 °C -10.1 °C 34188.4 hPa NNE 5.1 km/h 7.7 km/h 54 % 0 mm
17:37 -4.6 °C -10.1 °C 34188.4 hPa Calm   7.7 km/h 54 % 0 mm
17:42 -4.6 °C -10.1 °C 34188.4 hPa Calm   5.1 km/h 54 % 0 mm
17:47 -4.7 °C -10 °C 34178.3 hPa Calm   5.1 km/h 55 % 0 mm
17:52 -4.7 °C -10.2 °C 34188.4 hPa Calm   5.1 km/h 54 % 0 mm
17:57 -4.7 °C -10.2 °C 34188.4 hPa Calm   5.1 km/h 54 % 0 mm
18:02 -4.8 °C -9.9 °C 34188.4 hPa Calm   5.1 km/h 56 % 0 mm
18:07 -4.9 °C -9.9 °C 34198.6 hPa WSW 10.3 km/h 18.2 km/h 57 % 0 mm
18:12 -5.5 °C -9.2 °C 34188.4 hPa SW 15.6 km/h 18.2 km/h 66 % 33.02 mm
18:17 -6.2 °C -8.9 °C 34188.4 hPa West 7.7 km/h 18.2 km/h 73 % 38.1 mm
18:22 -6.6 °C -8.7 °C 34188.4 hPa WNW 5.1 km/h 20.8 km/h 79 % 38.1 mm
18:32 -6.9 °C -8.6 °C 34188.4 hPa West 2.6 km/h 18.2 km/h 83 % 58.42 mm
18:37 -7.1 °C -8.7 °C 34188.4 hPa West 5.1 km/h 10.3 km/h 84 % 71.12 mm
18:42 -7.2 °C -8.5 °C 34198.6 hPa West 5.1 km/h 10.3 km/h 86 % 71.12 mm
18:47 -7.2 °C -8.9 °C 34198.6 hPa West 12.9 km/h 12.9 km/h 83 % 76.2 mm
18:52 -7.2 °C -8.9 °C 34198.6 hPa South 5.1 km/h 15.6 km/h 82 % 76.2 mm
18:57 -7.1 °C -8.8 °C 34198.6 hPa SSE 2.6 km/h 23.3 km/h 82 % 96.52 mm
19:02 -7.2 °C -8.8 °C 34212.1 hPa Calm   23.3 km/h 84 % 129.54 mm
19:12 -7.4 °C -8.7 °C 34198.6 hPa NNE 5.1 km/h 10.3 km/h 87 % 129.54 mm
19:17 -7.6 °C -8.6 °C 34198.6 hPa Calm   10.3 km/h 89 % 134.62 mm
19:22 -7.6 °C -8.6 °C 34188.4 hPa Calm   10.3 km/h 90 % 129.54 mm
19:27 -7.7 °C -8.6 °C 34188.4 hPa NNE 7.7 km/h 7.7 km/h 90 % 121.92 mm
19:32 -7.7 °C -8.7 °C 34188.4 hPa ENE 2.6 km/h 12.9 km/h 90 % 121.92 mm
19:37 -7.8 °C -8.6 °C 34188.4 hPa NE 2.6 km/h 12.9 km/h 91 % 121.92 mm
19:42 -7.8 °C -8.7 °C 34188.4 hPa NE 7.7 km/h 18.2 km/h 91 % 129.54 mm
19:47 -7.8 °C -8.7 °C 34188.4 hPa ENE 7.7 km/h 18.2 km/h 91 % 129.54 mm
19:52 -7.8 °C -8.7 °C 34188.4 hPa NNE 5.1 km/h 10.3 km/h 91 % 129.54 mm
20:02 -7.7 °C -8.6 °C 34188.4 hPa ENE 12.9 km/h 18.2 km/h 91 % 104.14 mm
20:07 -7.7 °C -8.7 °C 34188.4 hPa NNE 7.7 km/h 31.1 km/h 90 % 83.82 mm
20:12 -7.7 °C -8.6 °C 34188.4 hPa East 12.9 km/h 31.1 km/h 91 % 58.42 mm
20:17 -7.7 °C -8.6 °C 34178.3 hPa North 5.1 km/h 31.1 km/h 91 % 58.42 mm
20:22 -7.8 °C -8.6 °C 34178.3 hPa NNE 5.1 km/h 23.3 km/h 91 % 50.8 mm
20:32 -7.9 °C -8.6 °C 34178.3 hPa ENE 2.6 km/h 12.9 km/h 92 % 45.72 mm
20:37 -7.9 °C -8.6 °C 34188.4 hPa ENE 5.1 km/h 10.3 km/h 92 % 45.72 mm
20:42 -7.9 °C -8.6 °C 34178.3 hPa ENE 7.7 km/h 23.3 km/h 93 % 38.1 mm
20:47 -7.9 °C -8.6 °C 34178.3 hPa ENE 28.5 km/h 28.5 km/h 93 % 33.02 mm
20:52 -7.9 °C -8.5 °C 34178.3 hPa ENE 18.2 km/h 38.8 km/h 93 % 25.4 mm
20:57 -7.9 °C -8.5 °C 34178.3 hPa ENE 10.3 km/h 38.8 km/h 93 % 25.4 mm
21:07 -7.8 °C -8.4 °C 34178.3 hPa NE 15.6 km/h 25.9 km/h 93 % 20.32 mm
21:17 -7.8 °C -8.4 °C 34154.6 hPa NE 20.8 km/h 25.9 km/h 93 % 25.4 mm
21:22 -7.9 °C -8.5 °C 34164.7 hPa NNE 18.2 km/h 25.9 km/h 93 % 25.4 mm
21:27 -7.8 °C -8.6 °C 34154.6 hPa NE 25.9 km/h 31.1 km/h 92 % 25.4 mm
21:32 -7.8 °C -8.5 °C 34154.6 hPa NE 15.6 km/h 31.1 km/h 92 % 25.4 mm
21:37 -7.8 °C -8.6 °C 34154.6 hPa NNE 23.3 km/h 31.1 km/h 91 % 25.4 mm
21:42 -7.7 °C -8.7 °C 34144.4 hPa NE 18.2 km/h 33.6 km/h 90 % 25.4 mm
21:47 -7.7 °C -8.7 °C 34144.4 hPa NNE 18.2 km/h 36.2 km/h 90 % 20.32 mm
21:52 -7.7 °C -8.7 °C 34144.4 hPa NE 10.3 km/h 36.2 km/h 90 % 20.32 mm
21:57 -7.8 °C -8.6 °C 34144.4 hPa NNE 15.6 km/h 36.2 km/h 91 % 12.7 mm
22:02 -7.8 °C -8.6 °C 34154.6 hPa NE 7.7 km/h 25.9 km/h 91 % 12.7 mm
22:12 -7.7 °C -8.6 °C 34198.6 hPa SSE 12.9 km/h 25.9 km/h 91 % 7.62 mm
22:17 -7.7 °C -8.4 °C 34222.3 hPa SW 20.8 km/h 33.6 km/h 92 % 0 mm
22:22 -7.7 °C -8.4 °C 34212.1 hPa SW 15.6 km/h 33.6 km/h 92 % 0 mm
22:27 -7.7 °C -8.4 °C 34198.6 hPa South 5.1 km/h 33.6 km/h 92 % 0 mm
22:32 -7.7 °C -8.6 °C 34188.4 hPa SW 7.7 km/h 36.2 km/h 90 % 0 mm
22:42 -7.7 °C -8.7 °C 34188.4 hPa SW 5.1 km/h 28.5 km/h 89 % 0 mm
22:47 -7.8 °C -8.8 °C 34188.4 hPa SW 5.1 km/h 20.8 km/h 89 % 0 mm
22:52 -7.8 °C -8.8 °C 34178.3 hPa West 7.7 km/h 18.2 km/h 90 % 7.62 mm
23:02 -7.9 °C -8.8 °C 34178.3 hPa NE 5.1 km/h 12.9 km/h 91 % 25.4 mm
23:12 -8.1 °C -8.8 °C 34178.3 hPa NNE 2.6 km/h 10.3 km/h 92 % 33.02 mm
23:22 -8.1 °C -8.8 °C 34178.3 hPa NNE 2.6 km/h 10.3 km/h 92 % 38.1 mm
23:27 -8.1 °C -8.7 °C 34178.3 hPa Calm   10.3 km/h 93 % 38.1 mm
23:37 -8.1 °C -8.8 °C 34178.3 hPa NE 2.6 km/h 10.3 km/h 92 % 38.1 mm
23:47 -8.1 °C -8.8 °C 34178.3 hPa NE 5.1 km/h 12.9 km/h 92 % 45.72 mm
23:52 -8.1 °C -8.8 °C 34164.7 hPa NNE 10.3 km/h 12.9 km/h 92 % 38.1 mm
Meteo18
Compliments of Weather Underground - 4 mb

Script developed by  Jim McMurry - jmcmurry@mwt.net Adapted for the template by  Wim van der Kuil - Leuven-Template.eu

You find our weather info also at:

European Weather Network

Weather Underground

Equipment we use:

Weather-station
Davis Vue

Weather-program
Meteobridge

Weather-server
Raspberry PI 2 B+

Provider
1 and 1

Davis Vue

Meteobridge

Raspberry PI 2 B+

1 and 1